createdAt,value
2019-06-07T00:01:20.942Z,15.60
2019-06-07T00:03:50.991Z,15.20
2019-06-07T00:06:25.717Z,15.67
2019-06-07T00:08:55.073Z,14.67
2019-06-07T00:11:24.516Z,14.83
2019-06-07T00:13:54.078Z,16.80
2019-06-07T00:16:23.656Z,15.03
2019-06-07T00:18:52.838Z,17.10
2019-06-07T00:22:12.280Z,15.93
2019-06-07T00:23:53.539Z,16.13
2019-06-07T00:26:22.747Z,16.27
2019-06-07T00:28:51.927Z,17.43
2019-06-07T00:31:24.052Z,16.20
2019-06-07T00:33:52.482Z,15.83
2019-06-07T00:36:23.241Z,15.70
2019-06-07T00:38:52.700Z,16.27
2019-06-07T00:41:22.410Z,17.03
2019-06-07T00:43:51.991Z,15.13
2019-06-07T00:46:25.112Z,16.47
2019-06-07T00:48:52.822Z,17.57
2019-06-07T00:51:24.067Z,18.27
2019-06-07T00:53:53.677Z,17.53
2019-06-07T00:56:23.553Z,15.17
2019-06-07T00:59:10.259Z,17.23
2019-06-07T01:01:25.412Z,17.77
2019-06-07T01:03:54.799Z,17.77
2019-06-07T01:06:24.914Z,18.03
2019-06-07T01:08:54.700Z,16.73
2019-06-07T01:11:26.017Z,17.70
2019-06-07T01:13:54.740Z,17.57
2019-06-07T01:16:26.379Z,17.67
2019-06-07T01:18:55.543Z,16.77
2019-06-07T01:21:29.455Z,18.00
2019-06-07T01:24:10.865Z,17.37
2019-06-07T01:26:30.181Z,16.77
2019-06-07T01:28:58.118Z,17.13
2019-06-07T01:31:30.992Z,16.83
2019-06-07T01:33:58.179Z,16.30
2019-06-07T01:36:29.591Z,18.23
2019-06-07T01:38:58.541Z,17.87
2019-06-07T01:41:30.690Z,16.47
2019-06-07T01:43:58.931Z,17.27
2019-06-07T01:46:28.775Z,18.30
2019-06-07T01:48:58.146Z,17.73
2019-06-07T01:51:30.464Z,18.20
2019-06-07T01:54:48.191Z,16.87
2019-06-07T01:56:29.939Z,15.70
2019-06-07T01:58:59.599Z,16.50
2019-06-07T02:01:34.718Z,16.20
2019-06-07T02:04:00.104Z,16.27
2019-06-07T02:06:31.929Z,15.40
2019-06-07T02:09:00.781Z,17.53
2019-06-07T02:11:31.912Z,16.43
2019-06-07T02:14:01.034Z,16.70
2019-06-07T02:16:32.546Z,17.57
2019-06-07T02:19:02.321Z,15.90
2019-06-07T02:21:34.333Z,16.10
2019-06-07T02:24:02.889Z,15.93
2019-06-07T02:26:32.642Z,16.03
2019-06-07T02:29:01.936Z,16.20
2019-06-07T02:31:36.968Z,15.33
2019-06-07T02:34:01.957Z,16.73
2019-06-07T02:36:39.267Z,14.93
2019-06-07T02:39:02.344Z,15.40
2019-06-07T02:41:36.753Z,15.37
2019-06-07T02:44:02.912Z,14.97
2019-06-07T02:46:40.074Z,15.00
2019-06-07T02:49:02.966Z,16.07
2019-06-07T02:51:40.006Z,17.33
2019-06-07T02:54:03.188Z,16.10
2019-06-07T02:56:48.879Z,16.27
2019-06-07T02:59:03.576Z,14.97
2019-06-07T03:01:39.472Z,15.17
2019-06-07T03:04:04.695Z,15.73
2019-06-07T03:06:38.895Z,14.57
2019-06-07T03:09:07.670Z,15.50
2019-06-07T03:11:40.270Z,16.27
2019-06-07T03:14:12.502Z,14.70
2019-06-07T03:16:45.284Z,15.53
2019-06-07T03:19:26.343Z,15.40
2019-06-07T03:21:55.755Z,14.43
2019-06-07T03:24:24.975Z,16.20
2019-06-07T03:29:28.443Z,17.00
2019-06-07T03:31:59.933Z,15.60
2019-06-07T03:34:33.017Z,16.37
2019-06-07T03:37:00.187Z,16.00
2019-06-07T03:39:29.661Z,16.77
2019-06-07T03:42:06.497Z,15.37
2019-06-07T03:44:33.950Z,16.73
2019-06-07T03:47:02.541Z,16.30
2019-06-07T03:49:37.577Z,16.93
2019-06-07T03:52:02.867Z,16.70
2019-06-07T03:54:34.843Z,18.07
2019-06-07T03:57:03.148Z,15.93
2019-06-07T03:59:38.681Z,16.77
2019-06-07T04:02:03.749Z,16.83
2019-06-07T04:04:34.987Z,17.57
2019-06-07T04:07:04.053Z,16.63
2019-06-07T04:09:37.464Z,18.17
2019-06-07T04:12:04.985Z,19.50
2019-06-07T04:14:35.757Z,16.63
2019-06-07T04:17:05.970Z,17.07
2019-06-07T04:19:39.441Z,16.53
2019-06-07T04:22:06.006Z,17.20
2019-06-07T04:24:38.888Z,16.03
2019-06-07T04:27:06.510Z,15.73
2019-06-07T04:30:00.566Z,16.40
2019-06-07T04:32:07.174Z,16.37
2019-06-07T04:34:40.145Z,17.20
2019-06-07T04:37:08.181Z,17.73
2019-06-07T04:39:44.192Z,17.97
2019-06-07T04:42:10.031Z,17.43
2019-06-07T04:44:42.594Z,14.70
2019-06-07T04:47:12.441Z,17.40
2019-06-07T04:49:44.211Z,18.33
2019-06-07T04:52:14.964Z,16.50
2019-06-07T04:54:45.910Z,18.40
2019-06-07T04:57:15.954Z,16.37
2019-06-07T05:02:16.051Z,16.50
2019-06-07T05:04:45.207Z,16.57
2019-06-07T05:07:15.026Z,17.80
2019-06-07T05:09:44.227Z,16.80
2019-06-07T05:12:13.411Z,17.03
2019-06-07T05:14:44.316Z,16.17
2019-06-07T05:17:13.907Z,17.50
2019-06-07T05:19:44.640Z,16.87
2019-06-07T05:22:14.355Z,15.73
2019-06-07T05:24:44.130Z,18.10
2019-06-07T05:27:13.599Z,16.17
2019-06-07T05:29:44.311Z,16.10
2019-06-07T05:32:14.015Z,19.43
2019-06-07T05:34:47.132Z,17.60
2019-06-07T05:37:13.983Z,16.23
2019-06-07T05:39:46.297Z,18.10
2019-06-07T05:42:14.254Z,20.10
2019-06-07T05:44:45.727Z,17.63
2019-06-07T05:47:15.796Z,16.33
2019-06-07T05:49:47.180Z,19.50
2019-06-07T05:52:16.562Z,17.73
2019-06-07T05:54:47.109Z,15.07
2019-06-07T05:57:18.210Z,16.07
2019-06-07T05:59:47.818Z,15.97
2019-06-07T06:02:22.578Z,14.33
2019-06-07T06:04:49.431Z,14.27
2019-06-07T06:07:19.192Z,19.73
2019-06-07T06:09:48.405Z,15.77
2019-06-07T06:12:34.035Z,15.53
2019-06-07T06:14:48.541Z,14.33
2019-06-07T06:17:18.143Z,13.83
2019-06-07T06:19:52.608Z,13.13
2019-06-07T06:22:18.598Z,13.57
2019-06-07T06:25:29.354Z,14.93
2019-06-07T06:28:02.688Z,11.97
2019-06-07T06:29:52.398Z,12.33
2019-06-07T06:34:53.864Z,12.07
2019-06-07T06:37:23.750Z,13.37
2019-06-07T06:39:53.238Z,14.87
2019-06-07T06:42:22.671Z,12.13
2019-06-07T06:44:53.976Z,13.27
2019-06-07T06:47:22.910Z,15.27
2019-06-07T06:49:54.406Z,12.57
2019-06-07T06:52:23.141Z,12.63
2019-06-07T06:55:00.120Z,12.47
2019-06-07T06:57:23.513Z,14.47
2019-06-07T06:59:52.911Z,16.37
2019-06-07T07:02:22.220Z,15.67
2019-06-07T07:04:53.431Z,16.60
2019-06-07T07:07:22.858Z,13.77
2019-06-07T07:09:58.120Z,12.97
2019-06-07T07:12:23.205Z,12.13
2019-06-07T07:14:56.076Z,12.60
2019-06-07T07:17:46.986Z,14.57
2019-06-07T07:19:55.850Z,12.17
2019-06-07T07:22:25.346Z,13.97
2019-06-07T07:24:55.097Z,12.77
2019-06-07T07:27:24.698Z,15.20
2019-06-07T07:30:34.230Z,13.93
2019-06-07T07:32:24.971Z,13.67
2019-06-07T07:35:00.266Z,13.50
2019-06-07T07:37:25.505Z,13.13
2019-06-07T07:40:08.094Z,11.10
2019-06-07T07:42:25.931Z,11.53
2019-06-07T07:44:56.745Z,15.07
2019-06-07T07:47:26.390Z,15.43
2019-06-07T07:49:58.765Z,14.37
2019-06-07T07:53:00.700Z,13.10
2019-06-07T07:55:30.978Z,12.67
2019-06-07T07:58:01.937Z,13.87
2019-06-07T08:03:04.480Z,9.50
2019-06-07T08:05:42.868Z,11.73
2019-06-07T08:08:07.847Z,13.37
2019-06-07T08:10:37.199Z,16.13
2019-06-07T08:13:23.275Z,11.57
2019-06-07T08:15:38.479Z,10.37
2019-06-07T08:18:08.181Z,15.77
2019-06-07T08:21:01.541Z,12.23
2019-06-07T08:23:12.330Z,9.93
2019-06-07T08:25:43.041Z,10.67
2019-06-07T08:28:12.261Z,11.13
2019-06-07T08:30:56.779Z,13.37
2019-06-07T08:33:26.058Z,12.67
2019-06-07T08:36:06.167Z,12.77
2019-06-07T08:38:26.564Z,12.23
2019-06-07T08:40:46.239Z,12.60
2019-06-07T08:43:20.559Z,9.63
2019-06-07T08:45:46.985Z,11.33
2019-06-07T08:48:27.601Z,12.77
2019-06-07T08:50:47.540Z,10.63
2019-06-07T08:53:17.145Z,10.07
2019-06-07T08:55:46.747Z,11.57
2019-06-07T08:58:16.780Z,11.77
2019-06-07T09:00:47.693Z,11.33
2019-06-07T09:03:17.550Z,12.23
2019-06-07T09:05:46.935Z,9.87
2019-06-07T09:08:29.366Z,8.00
2019-06-07T09:10:47.280Z,7.47
2019-06-07T09:13:17.060Z,9.53
2019-06-07T09:15:46.636Z,10.27
2019-06-07T09:18:42.180Z,11.20
2019-06-07T09:20:49.909Z,12.50
2019-06-07T09:23:19.819Z,10.50
2019-06-07T09:26:02.710Z,10.60
2019-06-07T09:28:21.802Z,11.33
2019-06-07T09:30:51.218Z,10.43
2019-06-07T09:33:20.718Z,9.20
2019-06-07T09:35:50.434Z,10.57
2019-06-07T09:38:25.391Z,9.57
2019-06-07T09:40:51.073Z,8.37
2019-06-07T09:45:51.944Z,10.30
2019-06-07T09:49:09.003Z,9.23
2019-06-07T09:50:53.000Z,7.33
2019-06-07T09:53:23.551Z,9.40
2019-06-07T09:55:56.753Z,10.23
2019-06-07T09:58:51.226Z,9.30
2019-06-07T10:01:00.074Z,13.03
2019-06-07T10:03:33.554Z,9.40
2019-06-07T10:06:08.788Z,9.83
2019-06-07T10:09:57.129Z,10.57
2019-06-07T10:11:06.699Z,10.30
2019-06-07T10:13:36.880Z,11.43
2019-06-07T10:16:08.803Z,10.47
2019-06-07T10:18:38.259Z,10.73
2019-06-07T10:21:08.325Z,10.67
2019-06-07T10:23:38.695Z,9.00
2019-06-07T10:26:08.208Z,11.43
2019-06-07T10:28:38.221Z,10.00
2019-06-07T10:31:09.453Z,7.03
2019-06-07T10:33:38.673Z,10.00
2019-06-07T10:36:08.623Z,8.10
2019-06-07T10:38:38.286Z,7.33
2019-06-07T10:41:08.879Z,7.60
2019-06-07T10:43:38.541Z,9.60
2019-06-07T10:46:08.051Z,10.33
2019-06-07T10:48:38.066Z,10.67
2019-06-07T10:51:08.582Z,8.53
2019-06-07T10:53:38.094Z,9.70
2019-06-07T10:56:08.927Z,10.33
2019-06-07T10:58:38.347Z,8.57
2019-06-07T11:01:09.289Z,7.70
2019-06-07T11:03:38.881Z,7.33
2019-06-07T11:06:08.268Z,8.60
2019-06-07T11:08:37.601Z,10.00
2019-06-07T11:11:07.761Z,8.03
2019-06-07T11:13:37.417Z,6.90
2019-06-07T11:16:06.910Z,5.93
2019-06-07T11:18:36.548Z,8.70
2019-06-07T11:21:06.147Z,10.20
2019-06-07T11:23:35.561Z,9.60
2019-06-07T11:26:06.199Z,6.73
2019-06-07T11:28:35.692Z,8.50
2019-06-07T11:31:06.346Z,8.60
2019-06-07T11:33:36.979Z,6.03
2019-06-07T11:36:06.700Z,7.67
2019-06-07T11:38:36.391Z,9.40
2019-06-07T11:41:05.881Z,8.10
2019-06-07T11:43:35.298Z,7.07
2019-06-07T11:46:04.893Z,8.70
2019-06-07T11:48:34.506Z,8.70
2019-06-07T11:51:03.923Z,7.77
2019-06-07T11:53:33.221Z,6.50
2019-06-07T11:56:02.727Z,5.13
2019-06-07T11:58:32.036Z,6.80
2019-06-07T12:01:01.230Z,8.07
2019-06-07T12:03:30.929Z,7.70
2019-06-07T12:06:00.242Z,7.83
2019-06-07T12:08:29.885Z,6.97
2019-06-07T12:10:59.360Z,6.70
2019-06-07T12:13:29.376Z,7.33
2019-06-07T12:15:59.087Z,7.40
2019-06-07T12:18:28.800Z,7.60
2019-06-07T12:20:58.190Z,8.97
2019-06-07T12:23:27.725Z,6.63
2019-06-07T12:25:57.317Z,7.07
2019-06-07T12:28:26.812Z,6.60
2019-06-07T12:30:56.322Z,6.30
2019-06-07T12:33:25.932Z,6.23
2019-06-07T12:35:55.473Z,6.67
2019-06-07T12:38:25.750Z,6.47
2019-06-07T12:40:57.927Z,5.97
2019-06-07T12:43:26.620Z,7.23
2019-06-07T12:45:56.137Z,6.13
2019-06-07T12:48:28.702Z,7.57
2019-06-07T12:50:58.209Z,6.93
2019-06-07T12:53:28.202Z,7.13
2019-06-07T12:56:00.154Z,4.57
2019-06-07T12:58:35.353Z,7.77
2019-06-07T13:01:01.158Z,6.17
2019-06-07T13:03:30.460Z,5.67
2019-06-07T13:05:59.854Z,6.77
2019-06-07T13:08:29.165Z,6.47
2019-06-07T13:11:14.015Z,7.73
2019-06-07T13:13:29.516Z,7.43
2019-06-07T13:15:59.004Z,7.13
2019-06-07T13:18:28.738Z,8.83
2019-06-07T13:20:58.635Z,7.27
2019-06-07T13:23:28.928Z,7.80
2019-06-07T13:25:58.682Z,8.40
2019-06-07T13:28:28.958Z,7.97
2019-06-07T13:30:58.605Z,5.73
2019-06-07T13:33:35.325Z,7.63
2019-06-07T13:35:59.359Z,7.57
2019-06-07T13:38:29.266Z,8.03
2019-06-07T13:40:58.887Z,8.60
2019-06-07T13:43:28.416Z,6.90
2019-06-07T13:45:57.902Z,7.70
2019-06-07T13:48:27.932Z,8.20
2019-06-07T13:50:57.526Z,7.60
2019-06-07T13:53:27.038Z,7.03
2019-06-07T13:55:56.539Z,7.17
2019-06-07T13:58:26.434Z,6.60
2019-06-07T14:00:55.875Z,6.67
2019-06-07T14:03:29.232Z,6.77
2019-06-07T14:05:56.574Z,7.53
2019-06-07T14:08:27.239Z,6.63
2019-06-07T14:11:01.574Z,6.70
2019-06-07T14:13:31.072Z,7.00
2019-06-07T14:16:06.619Z,8.20
2019-06-07T14:18:36.019Z,8.97
2019-06-07T14:21:12.388Z,8.50
2019-06-07T14:23:49.539Z,8.70
2019-06-07T14:26:19.075Z,8.40
2019-06-07T14:28:48.588Z,7.40
2019-06-07T14:31:37.971Z,8.27
2019-06-07T14:34:07.592Z,7.60
2019-06-07T14:36:38.711Z,8.10
2019-06-07T14:39:08.032Z,7.80
2019-06-07T14:41:37.540Z,7.20
2019-06-07T14:44:07.364Z,7.00
2019-06-07T14:46:36.943Z,7.47
2019-06-07T14:49:06.462Z,8.60
2019-06-07T14:51:36.068Z,8.60
2019-06-07T14:54:05.665Z,8.30
2019-06-07T14:56:35.409Z,7.73
2019-06-07T14:59:04.882Z,8.37
2019-06-07T15:01:35.673Z,8.27
2019-06-07T15:04:05.858Z,8.80
2019-06-07T15:06:35.055Z,9.17
2019-06-07T15:09:07.635Z,8.60
2019-06-07T15:11:37.043Z,9.57
2019-06-07T15:14:07.054Z,9.53
2019-06-07T15:16:38.448Z,10.13
2019-06-07T15:19:42.321Z,10.20
2019-06-07T15:22:32.078Z,10.13
2019-06-07T15:25:09.696Z,11.13
2019-06-07T15:27:39.303Z,11.23
2019-06-07T15:30:11.321Z,11.30
2019-06-07T15:32:41.099Z,11.13
2019-06-07T15:35:10.883Z,11.40
2019-06-07T15:37:40.607Z,10.23
2019-06-07T15:40:10.320Z,10.37
2019-06-07T15:42:50.014Z,11.80
2019-06-07T15:45:11.277Z,11.40
2019-06-07T15:47:47.746Z,10.93
2019-06-07T15:50:17.454Z,11.00
2019-06-07T15:52:46.858Z,11.47
2019-06-07T15:55:17.185Z,11.30
2019-06-07T15:57:46.526Z,11.97
2019-06-07T16:00:18.957Z,12.47
2019-06-07T16:02:48.874Z,12.67
2019-06-07T16:05:18.893Z,10.90
2019-06-07T16:07:48.409Z,10.97
2019-06-07T16:10:19.708Z,10.97
2019-06-07T16:12:59.767Z,11.17
2019-06-07T16:15:20.302Z,10.60
2019-06-07T16:17:49.698Z,11.33
2019-06-07T16:20:19.111Z,9.17
2019-06-07T16:22:50.704Z,9.10
2019-06-07T16:25:20.485Z,9.73
2019-06-07T16:27:49.993Z,8.80
2019-06-07T16:30:19.965Z,9.57
2019-06-07T16:32:49.613Z,9.40
2019-06-07T16:35:19.219Z,8.60
2019-06-07T16:37:51.644Z,8.17
2019-06-07T16:40:23.663Z,8.37
2019-06-07T16:43:18.161Z,7.47
2019-06-07T16:45:47.346Z,8.17
2019-06-07T16:48:16.871Z,8.40
2019-06-07T16:50:46.530Z,7.47
2019-06-07T16:53:16.174Z,7.57
2019-06-07T16:55:45.675Z,6.47
2019-06-07T16:58:16.104Z,6.90
2019-06-07T17:00:46.427Z,7.17
2019-06-07T17:03:15.859Z,7.17
2019-06-07T17:05:48.579Z,7.03
2019-06-07T17:08:16.588Z,7.73
2019-06-07T17:10:46.617Z,7.53
2019-06-07T17:13:32.120Z,7.10
2019-06-07T17:15:48.869Z,7.57
2019-06-07T17:18:18.311Z,7.40
2019-06-07T17:20:49.312Z,7.13
2019-06-07T17:23:18.962Z,7.20
2019-06-07T17:25:49.722Z,7.23
2019-06-07T17:28:19.527Z,8.30
2019-06-07T17:30:50.321Z,7.53
2019-06-07T17:33:19.974Z,8.20
2019-06-07T17:35:50.499Z,8.80
2019-06-07T17:38:20.186Z,8.20
2019-06-07T17:40:49.606Z,8.97
2019-06-07T17:43:19.403Z,9.90
2019-06-07T17:45:49.433Z,8.97
2019-06-07T17:48:19.110Z,9.20
2019-06-07T17:50:49.985Z,8.93
2019-06-07T17:53:19.479Z,8.10
2019-06-07T17:55:50.261Z,8.40
2019-06-07T17:58:19.926Z,8.80
2019-06-07T18:00:53.181Z,8.20
2019-06-07T18:03:22.738Z,7.90
2019-06-07T18:06:05.133Z,8.43
2019-06-07T18:08:36.702Z,8.03
2019-06-07T18:11:06.499Z,8.23
2019-06-07T18:13:37.963Z,7.97
2019-06-07T18:16:09.999Z,8.47
2019-06-07T18:19:16.514Z,8.23
2019-06-07T18:21:47.126Z,8.57
2019-06-07T18:24:16.947Z,8.17
2019-06-07T18:26:46.520Z,7.80
2019-06-07T18:29:31.234Z,8.20
2019-06-07T18:32:00.726Z,8.37
2019-06-07T18:34:30.249Z,8.43
2019-06-07T18:37:02.311Z,7.53
2019-06-07T18:39:35.195Z,9.43
2019-06-07T18:42:24.044Z,8.23
2019-06-07T18:45:00.627Z,8.27
2019-06-07T18:47:30.236Z,8.67
2019-06-07T18:49:59.731Z,8.63
2019-06-07T18:52:30.998Z,8.50
2019-06-07T18:55:00.404Z,8.13
2019-06-07T18:57:29.591Z,9.27
2019-06-07T18:59:58.930Z,8.57
2019-06-07T19:02:28.295Z,8.10
2019-06-07T19:04:58.414Z,7.83
2019-06-07T19:07:28.278Z,9.23
2019-06-07T19:09:59.403Z,8.50
2019-06-07T19:12:28.793Z,8.50
2019-06-07T19:14:59.659Z,8.60
2019-06-07T19:17:29.332Z,9.07
2019-06-07T19:19:58.635Z,8.80
2019-06-07T19:22:28.121Z,8.80
2019-06-07T19:24:58.441Z,8.53
2019-06-07T19:27:28.268Z,8.43
2019-06-07T19:29:57.472Z,8.53
2019-06-07T19:32:28.640Z,8.90
2019-06-07T19:34:57.930Z,8.77
2019-06-07T19:37:27.118Z,9.13
2019-06-07T19:39:56.328Z,8.00
2019-06-07T19:42:25.816Z,8.83
2019-06-07T19:45:08.830Z,9.13
2019-06-07T19:47:26.570Z,9.23
2019-06-07T19:49:56.687Z,8.40
2019-06-07T19:52:26.401Z,8.30
2019-06-07T19:54:55.833Z,9.03
2019-06-07T19:57:25.421Z,8.80
2019-06-07T19:59:55.444Z,8.57
2019-06-07T20:02:24.742Z,8.17
2019-06-07T20:04:57.166Z,8.23
2019-06-07T20:07:24.779Z,8.87
2019-06-07T20:09:54.497Z,9.10
2019-06-07T20:12:23.894Z,9.20
2019-06-07T20:14:59.443Z,8.70
2019-06-07T20:17:24.347Z,8.43
2019-06-07T20:19:53.709Z,9.13
2019-06-07T20:22:23.042Z,9.00
2019-06-07T20:24:52.430Z,9.20
2019-06-07T20:27:21.537Z,8.50
2019-06-07T20:29:50.888Z,9.53
2019-06-07T20:32:20.223Z,9.47
2019-06-07T20:34:49.614Z,9.40
2019-06-07T20:37:18.971Z,9.27
2019-06-07T20:39:48.083Z,9.67
2019-06-07T20:42:17.529Z,9.47
2019-06-07T20:44:46.918Z,10.03
2019-06-07T20:47:16.289Z,10.10
2019-06-07T20:49:45.665Z,11.00
2019-06-07T20:52:14.791Z,10.87
2019-06-07T20:54:44.161Z,10.50
2019-06-07T20:57:13.533Z,10.67
2019-06-07T20:59:42.880Z,11.10
2019-06-07T21:02:12.249Z,10.53
2019-06-07T21:04:41.324Z,10.77
2019-06-07T21:07:10.679Z,10.37
2019-06-07T21:09:39.770Z,10.03
2019-06-07T21:12:09.951Z,10.90
2019-06-07T21:14:39.176Z,10.13
2019-06-07T21:17:08.838Z,10.53
2019-06-07T21:19:38.221Z,10.33
2019-06-07T21:22:08.784Z,10.40
2019-06-07T21:24:38.059Z,10.60
2019-06-07T21:27:07.552Z,10.00
2019-06-07T21:29:36.837Z,9.83
2019-06-07T21:32:07.449Z,10.30
2019-06-07T21:34:36.664Z,10.13
2019-06-07T21:37:06.177Z,10.70
2019-06-07T21:39:35.523Z,11.20
2019-06-07T21:42:06.061Z,10.17
2019-06-07T21:44:35.152Z,10.70
2019-06-07T21:47:04.555Z,10.10
2019-06-07T21:49:34.394Z,10.70
2019-06-07T21:52:04.352Z,9.10
2019-06-07T21:54:33.604Z,11.33
2019-06-07T21:57:03.018Z,10.00
2019-06-07T21:59:32.105Z,9.97
2019-06-07T22:02:01.566Z,10.37
2019-06-07T22:04:30.644Z,10.17
2019-06-07T22:07:00.079Z,9.83
2019-06-07T22:09:29.194Z,11.00
2019-06-07T22:11:58.588Z,10.13
2019-06-07T22:14:27.960Z,9.50
2019-06-07T22:16:57.089Z,9.77
2019-06-07T22:19:26.429Z,9.80
2019-06-07T22:22:02.784Z,10.20
2019-06-07T22:24:26.553Z,9.60
2019-06-07T22:26:55.652Z,9.63
2019-06-07T22:29:24.998Z,8.40
2019-06-07T22:31:54.383Z,8.97
2019-06-07T22:34:23.489Z,9.13
2019-06-07T22:36:52.581Z,8.27
2019-06-07T22:39:21.947Z,6.63
2019-06-07T22:41:51.294Z,4.80
2019-06-07T22:44:20.398Z,4.07
2019-06-07T22:46:49.732Z,4.40
2019-06-07T22:49:19.609Z,4.17
2019-06-07T22:51:49.008Z,3.90
2019-06-07T22:54:18.378Z,2.90
2019-06-07T22:56:52.079Z,3.27
2019-06-07T22:59:21.990Z,3.37
2019-06-07T23:01:51.325Z,3.20
2019-06-07T23:04:20.664Z,3.10
2019-06-07T23:06:49.998Z,2.90
2019-06-07T23:09:19.792Z,3.23
2019-06-07T23:11:49.206Z,2.80
2019-06-07T23:14:19.506Z,3.20
2019-06-07T23:16:55.382Z,2.80
2019-06-07T23:19:20.491Z,2.80
2019-06-07T23:21:50.245Z,2.40
2019-06-07T23:24:21.383Z,2.60
2019-06-07T23:26:50.852Z,2.70
2019-06-07T23:29:22.269Z,2.93
2019-06-07T23:31:51.741Z,2.47
2019-06-07T23:34:21.150Z,2.10
2019-06-07T23:36:50.545Z,2.37
2019-06-07T23:39:21.982Z,2.03
2019-06-07T23:41:50.392Z,2.27
2019-06-07T23:44:19.738Z,1.87
2019-06-07T23:46:49.099Z,2.03
2019-06-07T23:49:19.418Z,2.00
2019-06-07T23:51:48.964Z,2.07
2019-06-07T23:54:18.333Z,1.80
2019-06-07T23:56:47.761Z,1.80
2019-06-07T23:59:18.135Z,1.70
